sensor_id;sensor_type;location;lat;lon;timestamp;pressure;altitude;pressure_sealevel;temperature;humidity
76378;BME280;65200;49.500;8.654;2023-05-23T00:02:15;100306.91;;;16.57;95.15
76378;BME280;65200;49.500;8.654;2023-05-23T00:04:41;100304.38;;;16.56;94.88
76378;BME280;65200;49.500;8.654;2023-05-23T00:07:09;100297.94;;;16.57;93.82
76378;BME280;65200;49.500;8.654;2023-05-23T00:09:36;100304.03;;;16.52;91.64
76378;BME280;65200;49.500;8.654;2023-05-23T00:12:03;100282.13;;;16.24;94.77
76378;BME280;65200;49.500;8.654;2023-05-23T00:14:29;100317.81;;;16.51;97.49
76378;BME280;65200;49.500;8.654;2023-05-23T00:16:58;100307.56;;;16.53;95.46
76378;BME280;65200;49.500;8.654;2023-05-23T00:19:25;100308.91;;;16.62;96.24
76378;BME280;65200;49.500;8.654;2023-05-23T00:21:52;100280.44;;;16.41;96.82
76378;BME280;65200;49.500;8.654;2023-05-23T00:24:24;100300.28;;;16.53;96.98
76378;BME280;65200;49.500;8.654;2023-05-23T00:26:51;100305.41;;;16.73;96.07
76378;BME280;65200;49.500;8.654;2023-05-23T00:29:17;100313.16;;;16.69;96.52
76378;BME280;65200;49.500;8.654;2023-05-23T00:31:44;100309.50;;;16.64;95.44
76378;BME280;65200;49.500;8.654;2023-05-23T00:34:11;100285.53;;;16.49;95.55
76378;BME280;65200;49.500;8.654;2023-05-23T00:36:38;100283.44;;;16.51;96.98
76378;BME280;65200;49.500;8.654;2023-05-23T00:39:06;100310.63;;;16.56;96.34
76378;BME280;65200;49.500;8.654;2023-05-23T00:41:34;100305.41;;;16.73;96.88
76378;BME280;65200;49.500;8.654;2023-05-23T00:44:02;100298.22;;;16.67;96.36
76378;BME280;65200;49.500;8.654;2023-05-23T00:46:30;100278.25;;;16.50;96.69
76378;BME280;65200;49.500;8.654;2023-05-23T00:48:57;100307.84;;;16.63;94.41
76378;BME280;65200;49.500;8.654;2023-05-23T00:51:24;100254.09;;;15.89;92.36
76378;BME280;65200;49.500;8.654;2023-05-23T00:53:51;100311.38;;;16.15;95.51
76378;BME280;65200;49.500;8.654;2023-05-23T00:56:19;100307.47;;;16.11;95.69
76378;BME280;65200;49.500;8.654;2023-05-23T00:58:47;100317.16;;;16.01;96.69
76378;BME280;65200;49.500;8.654;2023-05-23T01:01:15;100315.97;;;15.97;97.37
76378;BME280;65200;49.500;8.654;2023-05-23T01:03:41;100279.94;;;15.85;96.44
76378;BME280;65200;49.500;8.654;2023-05-23T01:06:10;100317.25;;;15.94;95.75
76378;BME280;65200;49.500;8.654;2023-05-23T01:08:36;100322.72;;;15.88;95.46
76378;BME280;65200;49.500;8.654;2023-05-23T01:11:13;100325.13;;;15.96;95.07
76378;BME280;65200;49.500;8.654;2023-05-23T01:13:55;100322.19;;;15.97;94.86
76378;BME280;65200;49.500;8.654;2023-05-23T01:16:31;100317.09;;;15.89;96.00
76378;BME280;65200;49.500;8.654;2023-05-23T01:19:07;100325.66;;;15.86;94.15
76378;BME280;65200;49.500;8.654;2023-05-23T01:21:42;100298.63;;;15.68;94.24
76378;BME280;65200;49.500;8.654;2023-05-23T01:24:29;100333.75;;;15.68;97.97
76378;BME280;65200;49.500;8.654;2023-05-23T01:27:07;100323.94;;;15.92;98.09
76378;BME280;65200;49.500;8.654;2023-05-23T01:29:37;100305.66;;;15.87;97.51
76378;BME280;65200;49.500;8.654;2023-05-23T01:32:07;100326.72;;;16.03;97.24
76378;BME280;65200;49.500;8.654;2023-05-23T01:34:35;100316.34;;;16.00;97.89
76378;BME280;65200;49.500;8.654;2023-05-23T01:37:07;100320.03;;;16.06;96.35
76378;BME280;65200;49.500;8.654;2023-05-23T01:39:35;100314.59;;;16.06;97.18
76378;BME280;65200;49.500;8.654;2023-05-23T01:42:02;100331.22;;;16.09;97.06
76378;BME280;65200;49.500;8.654;2023-05-23T01:44:29;100333.16;;;16.20;97.67
76378;BME280;65200;49.500;8.654;2023-05-23T01:46:58;100324.44;;;16.18;96.64
76378;BME280;65200;49.500;8.654;2023-05-23T01:49:25;100335.91;;;16.32;95.45
76378;BME280;65200;49.500;8.654;2023-05-23T01:51:52;100341.50;;;16.19;95.44
76378;BME280;65200;49.500;8.654;2023-05-23T01:54:18;100335.84;;;16.20;95.60
76378;BME280;65200;49.500;8.654;2023-05-23T01:56:46;100349.38;;;16.20;96.38
76378;BME280;65200;49.500;8.654;2023-05-23T01:59:13;100341.72;;;15.99;95.90
76378;BME280;65200;49.500;8.654;2023-05-23T02:01:40;100350.13;;;15.73;94.95
76378;BME280;65200;49.500;8.654;2023-05-23T02:04:09;100345.19;;;15.88;93.88
76378;BME280;65200;49.500;8.654;2023-05-23T02:06:35;100349.53;;;15.89;95.38
76378;BME280;65200;49.500;8.654;2023-05-23T02:09:02;100326.56;;;15.62;96.73
76378;BME280;65200;49.500;8.654;2023-05-23T02:11:28;100353.75;;;15.85;96.68
76378;BME280;65200;49.500;8.654;2023-05-23T02:13:55;100328.34;;;15.68;98.19
76378;BME280;65200;49.500;8.654;2023-05-23T02:16:21;100344.09;;;15.71;97.66
76378;BME280;65200;49.500;8.654;2023-05-23T02:18:50;100359.72;;;15.87;98.39
76378;BME280;65200;49.500;8.654;2023-05-23T02:21:18;100364.81;;;15.59;95.21
76378;BME280;65200;49.500;8.654;2023-05-23T02:23:45;100347.78;;;15.59;96.09
76378;BME280;65200;49.500;8.654;2023-05-23T02:26:11;100358.34;;;15.60;94.53
76378;BME280;65200;49.500;8.654;2023-05-23T02:28:38;100361.38;;;15.70;94.75
76378;BME280;65200;49.500;8.654;2023-05-23T02:31:05;100359.28;;;15.72;95.64
76378;BME280;65200;49.500;8.654;2023-05-23T02:33:31;100358.00;;;15.93;94.58
76378;BME280;65200;49.500;8.654;2023-05-23T02:35:58;100372.19;;;15.70;94.17
76378;BME280;65200;49.500;8.654;2023-05-23T02:38:26;100329.44;;;15.18;94.98
76378;BME280;65200;49.500;8.654;2023-05-23T02:40:54;100376.59;;;15.65;94.77
76378;BME280;65200;49.500;8.654;2023-05-23T02:43:21;100384.72;;;15.83;94.79
76378;BME280;65200;49.500;8.654;2023-05-23T02:45:48;100376.94;;;15.93;94.54
76378;BME280;65200;49.500;8.654;2023-05-23T02:48:15;100374.63;;;15.96;94.27
76378;BME280;65200;49.500;8.654;2023-05-23T02:50:41;100386.81;;;15.63;96.30
76378;BME280;65200;49.500;8.654;2023-05-23T02:53:08;100380.75;;;15.67;96.23
76378;BME280;65200;49.500;8.654;2023-05-23T02:55:36;100384.06;;;15.69;97.25
76378;BME280;65200;49.500;8.654;2023-05-23T02:58:02;100347.56;;;15.60;97.16
76378;BME280;65200;49.500;8.654;2023-05-23T03:00:30;100378.50;;;16.00;95.36
76378;BME280;65200;49.500;8.654;2023-05-23T03:02:56;100381.59;;;16.04;96.39
76378;BME280;65200;49.500;8.654;2023-05-23T03:05:23;100380.41;;;16.18;96.28
76378;BME280;65200;49.500;8.654;2023-05-23T03:07:49;100383.69;;;16.02;95.96
76378;BME280;65200;49.500;8.654;2023-05-23T03:10:16;100389.09;;;16.20;95.71
76378;BME280;65200;49.500;8.654;2023-05-23T03:12:45;100387.69;;;15.99;96.57
76378;BME280;65200;49.500;8.654;2023-05-23T03:15:11;100387.69;;;16.17;96.36
76378;BME280;65200;49.500;8.654;2023-05-23T03:17:38;100381.13;;;16.25;95.75
76378;BME280;65200;49.500;8.654;2023-05-23T03:20:05;100372.41;;;16.41;95.14
76378;BME280;65200;49.500;8.654;2023-05-23T03:22:34;100366.19;;;16.40;94.95
76378;BME280;65200;49.500;8.654;2023-05-23T03:25:00;100395.28;;;16.45;95.96
76378;BME280;65200;49.500;8.654;2023-05-23T03:27:26;100378.88;;;16.58;94.01
76378;BME280;65200;49.500;8.654;2023-05-23T03:29:54;100385.13;;;16.59;94.88
76378;BME280;65200;49.500;8.654;2023-05-23T03:32:21;100399.53;;;16.34;96.42
76378;BME280;65200;49.500;8.654;2023-05-23T03:34:47;100391.28;;;16.29;96.83
76378;BME280;65200;49.500;8.654;2023-05-23T03:37:14;100387.47;;;16.19;97.27
76378;BME280;65200;49.500;8.654;2023-05-23T03:39:40;100390.91;;;16.26;97.29
76378;BME280;65200;49.500;8.654;2023-05-23T03:42:07;100400.69;;;16.27;97.87
76378;BME280;65200;49.500;8.654;2023-05-23T03:44:33;100398.03;;;16.20;97.96
76378;BME280;65200;49.500;8.654;2023-05-23T03:47:01;100399.41;;;16.11;99.14
76378;BME280;65200;49.500;8.654;2023-05-23T03:49:27;100379.38;;;15.76;99.50
76378;BME280;65200;49.500;8.654;2023-05-23T03:51:54;100413.03;;;15.80;100.00
76378;BME280;65200;49.500;8.654;2023-05-23T03:54:20;100411.28;;;15.68;100.00
76378;BME280;65200;49.500;8.654;2023-05-23T03:56:47;100392.97;;;15.45;100.00
76378;BME280;65200;49.500;8.654;2023-05-23T03:59:13;100414.75;;;15.50;100.00
76378;BME280;65200;49.500;8.654;2023-05-23T04:01:40;100394.06;;;15.38;100.00
76378;BME280;65200;49.500;8.654;2023-05-23T04:04:07;100402.97;;;15.45;100.00
76378;BME280;65200;49.500;8.654;2023-05-23T04:06:34;100417.91;;;15.47;100.00
76378;BME280;65200;49.500;8.654;2023-05-23T04:09:01;100393.06;;;15.32;100.00
76378;BME280;65200;49.500;8.654;2023-05-23T04:11:27;100417.97;;;15.65;98.98
76378;BME280;65200;49.500;8.654;2023-05-23T04:13:54;100426.50;;;15.62;99.49
76378;BME280;65200;49.500;8.654;2023-05-23T04:16:20;100407.53;;;15.44;99.81
76378;BME280;65200;49.500;8.654;2023-05-23T04:18:48;100412.13;;;15.44;100.00
76378;BME280;65200;49.500;8.654;2023-05-23T04:21:15;100374.94;;;15.14;100.00
76378;BME280;65200;49.500;8.654;2023-05-23T04:23:42;100409.72;;;15.29;100.00
76378;BME280;65200;49.500;8.654;2023-05-23T04:26:09;100378.34;;;15.03;100.00
76378;BME280;65200;49.500;8.654;2023-05-23T04:28:35;100426.56;;;15.56;98.42
76378;BME280;65200;49.500;8.654;2023-05-23T04:31:04;100435.91;;;15.53;97.09
76378;BME280;65200;49.500;8.654;2023-05-23T04:33:30;100435.00;;;15.41;98.02
76378;BME280;65200;49.500;8.654;2023-05-23T04:35:58;100435.78;;;15.17;98.99
76378;BME280;65200;49.500;8.654;2023-05-23T04:38:26;100385.13;;;14.81;99.03
76378;BME280;65200;49.500;8.654;2023-05-23T04:40:52;100443.91;;;15.10;99.60
76378;BME280;65200;49.500;8.654;2023-05-23T04:43:19;100441.47;;;15.02;100.00
76378;BME280;65200;49.500;8.654;2023-05-23T04:45:46;100441.00;;;15.12;99.73
76378;BME280;65200;49.500;8.654;2023-05-23T04:48:14;100450.22;;;15.29;98.37
76378;BME280;65200;49.500;8.654;2023-05-23T04:50:42;100420.66;;;15.09;97.75
76378;BME280;65200;49.500;8.654;2023-05-23T04:53:11;100466.84;;;15.26;97.68
76378;BME280;65200;49.500;8.654;2023-05-23T04:55:43;100452.38;;;15.14;98.23
76378;BME280;65200;49.500;8.654;2023-05-23T04:58:10;100418.50;;;14.87;98.57
76378;BME280;65200;49.500;8.654;2023-05-23T05:00:37;100445.81;;;15.03;97.73
76378;BME280;65200;49.500;8.654;2023-05-23T05:03:03;100472.34;;;15.13;97.44
76378;BME280;65200;49.500;8.654;2023-05-23T05:05:30;100472.56;;;15.11;97.37
76378;BME280;65200;49.500;8.654;2023-05-23T05:07:56;100448.59;;;14.90;97.53
76378;BME280;65200;49.500;8.654;2023-05-23T05:10:23;100472.56;;;15.11;97.24
76378;BME280;65200;49.500;8.654;2023-05-23T05:12:51;100465.72;;;15.09;98.22
76378;BME280;65200;49.500;8.654;2023-05-23T05:15:17;100482.63;;;15.29;96.86
76378;BME280;65200;49.500;8.654;2023-05-23T05:17:44;100435.47;;;15.00;96.92
76378;BME280;65200;49.500;8.654;2023-05-23T05:20:11;100491.56;;;15.30;96.44
76378;BME280;65200;49.500;8.654;2023-05-23T05:22:38;100485.31;;;15.29;96.01
76378;BME280;65200;49.500;8.654;2023-05-23T05:25:06;100490.72;;;15.29;97.08
76378;BME280;65200;49.500;8.654;2023-05-23T05:27:33;100493.84;;;15.26;96.31
76378;BME280;65200;49.500;8.654;2023-05-23T05:30:04;100493.06;;;15.19;95.27
76378;BME280;65200;49.500;8.654;2023-05-23T05:32:39;100438.69;;;14.78;96.26
76378;BME280;65200;49.500;8.654;2023-05-23T05:35:06;100496.84;;;15.11;96.13
76378;BME280;65200;49.500;8.654;2023-05-23T05:37:37;100484.63;;;15.09;95.66
76378;BME280;65200;49.500;8.654;2023-05-23T05:40:05;100516.88;;;15.35;96.73
76378;BME280;65200;49.500;8.654;2023-05-23T05:42:33;100505.00;;;15.36;96.00
76378;BME280;65200;49.500;8.654;2023-05-23T05:44:59;100487.75;;;15.37;95.06
76378;BME280;65200;49.500;8.654;2023-05-23T05:47:27;100514.44;;;15.58;93.58
76378;BME280;65200;49.500;8.654;2023-05-23T05:49:53;100518.59;;;15.61;93.65
76378;BME280;65200;49.500;8.654;2023-05-23T05:52:20;100523.34;;;15.65;93.56
76378;BME280;65200;49.500;8.654;2023-05-23T05:54:46;100525.25;;;15.58;94.45
76378;BME280;65200;49.500;8.654;2023-05-23T05:57:13;100532.09;;;15.61;92.49
76378;BME280;65200;49.500;8.654;2023-05-23T05:59:39;100534.03;;;15.78;92.64
76378;BME280;65200;49.500;8.654;2023-05-23T06:02:06;100530.44;;;15.84;92.48
76378;BME280;65200;49.500;8.654;2023-05-23T06:04:34;100496.44;;;15.77;91.54
76378;BME280;65200;49.500;8.654;2023-05-23T06:07:01;100535.91;;;16.02;91.00
76378;BME280;65200;49.500;8.654;2023-05-23T06:09:27;100540.06;;;16.05;91.98
76378;BME280;65200;49.500;8.654;2023-05-23T06:11:54;100492.84;;;15.83;90.26
76378;BME280;65200;49.500;8.654;2023-05-23T06:14:20;100550.94;;;16.23;88.51
76378;BME280;65200;49.500;8.654;2023-05-23T06:16:47;100550.59;;;16.37;89.47
76378;BME280;65200;49.500;8.654;2023-05-23T06:19:13;100503.63;;;16.07;87.78
76378;BME280;65200;49.500;8.654;2023-05-23T06:21:41;100556.34;;;16.41;87.02
76378;BME280;65200;49.500;8.654;2023-05-23T06:24:08;100510.56;;;16.03;87.77
76378;BME280;65200;49.500;8.654;2023-05-23T06:26:34;100552.53;;;16.30;88.39
76378;BME280;65200;49.500;8.654;2023-05-23T06:29:01;100550.72;;;16.42;88.99
76378;BME280;65200;49.500;8.654;2023-05-23T06:31:28;100542.66;;;16.36;90.58
76378;BME280;65200;49.500;8.654;2023-05-23T06:33:55;100527.41;;;16.23;89.20
76378;BME280;65200;49.500;8.654;2023-05-23T06:36:21;100552.75;;;16.29;90.67
76378;BME280;65200;49.500;8.654;2023-05-23T06:38:49;100557.28;;;16.10;90.82
76378;BME280;65200;49.500;8.654;2023-05-23T06:41:16;100559.97;;;16.10;89.96
76378;BME280;65200;49.500;8.654;2023-05-23T06:43:42;100570.72;;;16.17;89.93
76378;BME280;65200;49.500;8.654;2023-05-23T06:46:08;100578.44;;;16.38;88.04
76378;BME280;65200;49.500;8.654;2023-05-23T06:48:35;100581.31;;;16.68;88.38
76378;BME280;65200;49.500;8.654;2023-05-23T06:51:01;100581.78;;;16.83;86.43
76378;BME280;65200;49.500;8.654;2023-05-23T06:53:28;100562.28;;;16.74;85.97
76378;BME280;65200;49.500;8.654;2023-05-23T06:55:56;100581.38;;;16.79;83.21
76378;BME280;65200;49.500;8.654;2023-05-23T06:58:22;100585.97;;;16.79;83.87
76378;BME280;65200;49.500;8.654;2023-05-23T07:00:49;100586.88;;;16.73;83.32
76378;BME280;65200;49.500;8.654;2023-05-23T07:03:16;100589.13;;;16.76;83.65
76378;BME280;65200;49.500;8.654;2023-05-23T07:05:42;100588.00;;;16.83;86.18
76378;BME280;65200;49.500;8.654;2023-05-23T07:08:09;100580.38;;;16.56;78.87
76378;BME280;65200;49.500;8.654;2023-05-23T07:10:36;100591.19;;;16.56;82.30
76378;BME280;65200;49.500;8.654;2023-05-23T07:13:06;100593.56;;;16.52;79.67
76378;BME280;65200;49.500;8.654;2023-05-23T07:15:33;100604.59;;;16.51;80.32
76378;BME280;65200;49.500;8.654;2023-05-23T07:17:59;100611.25;;;16.48;81.75
76378;BME280;65200;49.500;8.654;2023-05-23T07:20:26;100610.00;;;16.51;80.65
76378;BME280;65200;49.500;8.654;2023-05-23T07:22:52;100558.31;;;16.09;81.04
76378;BME280;65200;49.500;8.654;2023-05-23T07:25:19;100602.47;;;16.28;81.56
76378;BME280;65200;49.500;8.654;2023-05-23T07:27:47;100611.75;;;16.38;81.35
76378;BME280;65200;49.500;8.654;2023-05-23T07:30:15;100616.25;;;16.44;81.97
76378;BME280;65200;49.500;8.654;2023-05-23T07:32:41;100597.59;;;16.36;83.43
76378;BME280;65200;49.500;8.654;2023-05-23T07:35:08;100545.41;;;16.11;82.90
76378;BME280;65200;49.500;8.654;2023-05-23T07:37:35;100612.78;;;16.62;83.69
76378;BME280;65200;49.500;8.654;2023-05-23T07:40:01;100613.50;;;16.76;81.49
76378;BME280;65200;49.500;8.654;2023-05-23T07:42:31;100608.69;;;16.78;80.89
76378;BME280;65200;49.500;8.654;2023-05-23T07:44:57;100614.47;;;16.81;80.40
76378;BME280;65200;49.500;8.654;2023-05-23T07:47:25;100605.97;;;16.78;81.12
76378;BME280;65200;49.500;8.654;2023-05-23T07:49:52;100609.38;;;16.91;83.09
76378;BME280;65200;49.500;8.654;2023-05-23T07:52:18;100608.09;;;17.12;80.51
76378;BME280;65200;49.500;8.654;2023-05-23T07:54:45;100592.94;;;17.22;79.27
76378;BME280;65200;49.500;8.654;2023-05-23T07:57:12;100592.69;;;17.42;78.09
76378;BME280;65200;49.500;8.654;2023-05-23T07:59:40;100609.19;;;18.00;76.14
76378;BME280;65200;49.500;8.654;2023-05-23T08:02:07;100610.44;;;18.38;75.85
76378;BME280;65200;49.500;8.654;2023-05-23T08:04:35;100615.44;;;18.76;73.02
76378;BME280;65200;49.500;8.654;2023-05-23T08:07:02;100619.59;;;18.14;74.31
76378;BME280;65200;49.500;8.654;2023-05-23T08:09:29;100557.44;;;17.60;72.41
76378;BME280;65200;49.500;8.654;2023-05-23T08:11:56;100592.75;;;17.83;72.14
76378;BME280;65200;49.500;8.654;2023-05-23T08:14:22;100613.66;;;17.94;74.12
76378;BME280;65200;49.500;8.654;2023-05-23T08:16:49;100579.81;;;17.85;74.66
76378;BME280;65200;49.500;8.654;2023-05-23T08:19:16;100613.66;;;17.94;72.54
76378;BME280;65200;49.500;8.654;2023-05-23T08:21:44;100626.94;;;18.25;72.24
76378;BME280;65200;49.500;8.654;2023-05-23T08:24:13;100615.97;;;18.32;69.18
76378;BME280;65200;49.500;8.654;2023-05-23T08:26:39;100613.22;;;18.20;71.87
76378;BME280;65200;49.500;8.654;2023-05-23T08:29:06;100608.16;;;18.12;71.03
76378;BME280;65200;49.500;8.654;2023-05-23T08:31:33;100602.38;;;18.20;70.74
76378;BME280;65200;49.500;8.654;2023-05-23T08:34:01;100621.94;;;18.11;70.40
76378;BME280;65200;49.500;8.654;2023-05-23T08:36:28;100608.28;;;18.17;70.14
76378;BME280;65200;49.500;8.654;2023-05-23T08:38:57;100635.41;;;18.17;68.41
76378;BME280;65200;49.500;8.654;2023-05-23T08:41:24;100618.28;;;18.05;68.98
76378;BME280;65200;49.500;8.654;2023-05-23T08:43:51;100587.13;;;17.96;69.22
76378;BME280;65200;49.500;8.654;2023-05-23T08:46:18;100589.06;;;18.19;70.52
76378;BME280;65200;49.500;8.654;2023-05-23T08:48:50;100572.63;;;18.02;71.52
76378;BME280;65200;49.500;8.654;2023-05-23T08:51:20;100623.69;;;18.05;69.67
76378;BME280;65200;49.500;8.654;2023-05-23T08:53:48;100609.78;;;18.02;69.61
76378;BME280;65200;49.500;8.654;2023-05-23T08:56:16;100625.03;;;18.14;71.20
76378;BME280;65200;49.500;8.654;2023-05-23T08:58:43;100609.03;;;18.59;68.26
76378;BME280;65200;49.500;8.654;2023-05-23T09:01:12;100622.22;;;19.64;64.82
76378;BME280;65200;49.500;8.654;2023-05-23T09:03:43;100624.22;;;19.69;68.29
76378;BME280;65200;49.500;8.654;2023-05-23T09:06:10;100618.31;;;19.88;64.77
76378;BME280;65200;49.500;8.654;2023-05-23T09:08:37;100624.28;;;19.46;65.61
76378;BME280;65200;49.500;8.654;2023-05-23T09:11:05;100625.56;;;18.92;65.61
76378;BME280;65200;49.500;8.654;2023-05-23T09:13:34;100622.72;;;18.75;67.92
76378;BME280;65200;49.500;8.654;2023-05-23T09:16:02;100624.53;;;18.81;68.34
76378;BME280;65200;49.500;8.654;2023-05-23T09:18:33;100640.41;;;19.12;64.31
76378;BME280;65200;49.500;8.654;2023-05-23T09:21:01;100588.75;;;18.73;63.99
76378;BME280;65200;49.500;8.654;2023-05-23T09:23:29;100611.50;;;18.95;65.46
76378;BME280;65200;49.500;8.654;2023-05-23T09:26:00;100631.34;;;18.95;65.90
76378;BME280;65200;49.500;8.654;2023-05-23T09:28:28;100625.81;;;18.90;66.73
76378;BME280;65200;49.500;8.654;2023-05-23T09:31:00;100623.84;;;19.65;66.32
76378;BME280;65200;49.500;8.654;2023-05-23T09:33:35;100618.50;;;19.42;63.76
76378;BME280;65200;49.500;8.654;2023-05-23T09:36:03;100631.22;;;19.13;66.88
76378;BME280;65200;49.500;8.654;2023-05-23T09:38:30;100603.28;;;18.67;65.47
76378;BME280;65200;49.500;8.654;2023-05-23T09:40:57;100577.66;;;18.74;66.22
76378;BME280;65200;49.500;8.654;2023-05-23T09:43:24;100619.75;;;19.11;64.93
76378;BME280;65200;49.500;8.654;2023-05-23T09:45:52;100630.69;;;19.40;64.41
76378;BME280;65200;49.500;8.654;2023-05-23T09:48:27;100625.75;;;19.93;61.93
76378;BME280;65200;49.500;8.654;2023-05-23T09:50:53;100626.63;;;20.26;62.41
76378;BME280;65200;49.500;8.654;2023-05-23T09:53:20;100626.00;;;20.08;63.68
76378;BME280;65200;49.500;8.654;2023-05-23T09:55:48;100613.25;;;20.58;63.12
76378;BME280;65200;49.500;8.654;2023-05-23T09:58:18;100634.53;;;21.16;62.88
76378;BME280;65200;49.500;8.654;2023-05-23T10:00:46;100642.66;;;21.32;60.26
76378;BME280;65200;49.500;8.654;2023-05-23T10:03:15;100579.81;;;21.17;58.04
76378;BME280;65200;49.500;8.654;2023-05-23T10:05:46;100605.94;;;20.80;56.72
76378;BME280;65200;49.500;8.654;2023-05-23T10:08:15;100636.69;;;20.59;62.35
76378;BME280;65200;49.500;8.654;2023-05-23T10:13:43;100641.22;;;19.36;63.28
76378;BME280;65200;49.500;8.654;2023-05-23T10:16:16;100606.56;;;18.80;64.96
76378;BME280;65200;49.500;8.654;2023-05-23T10:18:47;100643.75;;;18.91;66.46
76378;BME280;65200;49.500;8.654;2023-05-23T10:21:18;100635.94;;;19.06;65.83
76378;BME280;65200;49.500;8.654;2023-05-23T10:23:45;100643.16;;;19.01;66.08
76378;BME280;65200;49.500;8.654;2023-05-23T10:26:14;100643.75;;;18.91;67.96
76378;BME280;65200;49.500;8.654;2023-05-23T10:28:41;100641.88;;;18.80;66.13
76378;BME280;65200;49.500;8.654;2023-05-23T10:31:08;100654.28;;;18.76;67.25
76378;BME280;65200;49.500;8.654;2023-05-23T10:33:40;100655.56;;;18.97;65.77
76378;BME280;65200;49.500;8.654;2023-05-23T10:36:13;100631.09;;;18.97;65.78
76378;BME280;65200;49.500;8.654;2023-05-23T10:38:54;100579.25;;;18.98;67.94
76378;BME280;65200;49.500;8.654;2023-05-23T10:41:30;100609.75;;;19.40;65.12
76378;BME280;65200;49.500;8.654;2023-05-23T10:44:08;100645.19;;;19.85;64.51
76378;BME280;65200;49.500;8.654;2023-05-23T10:46:50;100654.03;;;19.64;65.09
76378;BME280;65200;49.500;8.654;2023-05-23T10:49:20;100661.88;;;19.49;64.78
76378;BME280;65200;49.500;8.654;2023-05-23T10:51:48;100642.78;;;19.21;66.66
76378;BME280;65200;49.500;8.654;2023-05-23T10:54:18;100575.81;;;19.03;65.42
76378;BME280;65200;49.500;8.654;2023-05-23T10:56:45;100652.78;;;19.43;65.28
76378;BME280;65200;49.500;8.654;2023-05-23T10:59:20;100658.22;;;19.43;66.73
76378;BME280;65200;49.500;8.654;2023-05-23T11:01:49;100653.06;;;19.30;63.74
76378;BME280;65200;49.500;8.654;2023-05-23T11:04:24;100651.06;;;19.02;65.62
76378;BME280;65200;49.500;8.654;2023-05-23T11:06:52;100614.50;;;18.47;66.04
76378;BME280;65200;49.500;8.654;2023-05-23T11:09:20;100642.41;;;18.36;67.42
76378;BME280;65200;49.500;8.654;2023-05-23T11:11:51;100641.78;;;18.11;67.95
76378;BME280;65200;49.500;8.654;2023-05-23T11:14:19;100652.16;;;18.14;69.55
76378;BME280;65200;49.500;8.654;2023-05-23T11:16:56;100630.38;;;17.91;69.68
76378;BME280;65200;49.500;8.654;2023-05-23T11:19:24;100595.56;;;17.76;69.31
76378;BME280;65200;49.500;8.654;2023-05-23T11:21:57;100660.78;;;18.23;68.26
76378;BME280;65200;49.500;8.654;2023-05-23T11:24:49;100667.09;;;18.46;66.59
76378;BME280;65200;49.500;8.654;2023-05-23T11:27:16;100667.84;;;18.76;66.39
76378;BME280;65200;49.500;8.654;2023-05-23T11:29:45;100661.22;;;19.07;66.12
76378;BME280;65200;49.500;8.654;2023-05-23T11:32:22;100619.97;;;19.10;65.32
76378;BME280;65200;49.500;8.654;2023-05-23T11:34:49;100675.56;;;19.54;64.52
76378;BME280;65200;49.500;8.654;2023-05-23T11:37:28;100617.13;;;19.17;63.31
76378;BME280;65200;49.500;8.654;2023-05-23T11:39:57;100657.16;;;19.44;63.84
76378;BME280;65200;49.500;8.654;2023-05-23T11:42:24;100653.81;;;19.54;63.57
76378;BME280;65200;49.500;8.654;2023-05-23T11:44:51;100652.66;;;19.50;62.88
76378;BME280;65200;49.500;8.654;2023-05-23T11:47:20;100626.72;;;19.59;63.03
76378;BME280;65200;49.500;8.654;2023-05-23T11:49:51;100610.59;;;19.97;63.95
76378;BME280;65200;49.500;8.654;2023-05-23T11:52:18;100618.72;;;20.41;60.19
76378;BME280;65200;49.500;8.654;2023-05-23T11:54:46;100651.44;;;20.96;59.34
76378;BME280;65200;49.500;8.654;2023-05-23T11:57:14;100646.44;;;21.74;61.51
76378;BME280;65200;49.500;8.654;2023-05-23T11:59:41;100607.94;;;20.85;59.52
76378;BME280;65200;49.500;8.654;2023-05-23T12:02:07;100644.31;;;20.12;62.65
76378;BME280;65200;49.500;8.654;2023-05-23T12:04:34;100661.72;;;19.55;65.33
76378;BME280;65200;49.500;8.654;2023-05-23T12:07:03;100659.59;;;18.83;63.87
76378;BME280;65200;49.500;8.654;2023-05-23T12:09:30;100663.22;;;18.42;67.25
76378;BME280;65200;49.500;8.654;2023-05-23T12:11:56;100592.28;;;17.86;68.57
76378;BME280;65200;49.500;8.654;2023-05-23T12:14:27;100642.94;;;18.15;68.12
76378;BME280;65200;49.500;8.654;2023-05-23T12:16:54;100648.91;;;17.94;69.27
76378;BME280;65200;49.500;8.654;2023-05-23T12:19:22;100654.41;;;17.88;69.51
76378;BME280;65200;49.500;8.654;2023-05-23T12:21:48;100642.69;;;17.94;69.54
76378;BME280;65200;49.500;8.654;2023-05-23T12:24:17;100654.06;;;18.25;70.34
76378;BME280;65200;49.500;8.654;2023-05-23T12:26:48;100653.66;;;18.51;69.48
76378;BME280;65200;49.500;8.654;2023-05-23T12:29:17;100654.97;;;18.72;69.45
76378;BME280;65200;49.500;8.654;2023-05-23T12:31:49;100646.50;;;18.80;68.73
76378;BME280;65200;49.500;8.654;2023-05-23T12:34:18;100654.34;;;19.04;67.12
76378;BME280;65200;49.500;8.654;2023-05-23T12:36:53;100657.78;;;19.00;66.36
76378;BME280;65200;49.500;8.654;2023-05-23T12:39:23;100649.88;;;18.98;68.66
76378;BME280;65200;49.500;8.654;2023-05-23T12:41:51;100629.75;;;19.23;66.42
76378;BME280;65200;49.500;8.654;2023-05-23T12:44:20;100634.59;;;19.32;64.72
76378;BME280;65200;49.500;8.654;2023-05-23T12:46:50;100657.44;;;19.71;64.76
76378;BME280;65200;49.500;8.654;2023-05-23T12:49:17;100646.81;;;19.69;63.84
76378;BME280;65200;49.500;8.654;2023-05-23T12:51:45;100648.38;;;19.82;62.25
76378;BME280;65200;49.500;8.654;2023-05-23T12:54:17;100667.09;;;20.06;62.91
76378;BME280;65200;49.500;8.654;2023-05-23T12:56:51;100647.19;;;20.34;61.71
76378;BME280;65200;49.500;8.654;2023-05-23T12:59:19;100643.72;;;20.55;62.66